createdAt,value
2023-08-15T00:01:16.298Z,19.19
2023-08-15T00:04:18.578Z,19.06
2023-08-15T00:07:21.137Z,19.16
2023-08-15T00:10:23.551Z,19.26
2023-08-15T00:13:25.824Z,19.28
2023-08-15T00:16:28.185Z,19.17
2023-08-15T00:19:30.678Z,19.17
2023-08-15T00:22:32.936Z,19.02
2023-08-15T00:25:35.258Z,18.81
2023-08-15T00:28:37.475Z,18.71
2023-08-15T00:31:40.680Z,18.53
2023-08-15T00:34:42.925Z,18.53
2023-08-15T00:37:45.262Z,18.76
2023-08-15T00:40:47.581Z,18.72
2023-08-15T00:43:54.493Z,18.61
2023-08-15T00:46:56.922Z,18.71
2023-08-15T00:50:00.553Z,18.66
2023-08-15T00:53:04.170Z,18.68
2023-08-15T00:56:08.344Z,18.59
2023-08-15T00:59:10.594Z,18.76
2023-08-15T01:02:13.389Z,18.76
2023-08-15T01:05:17.277Z,18.66
2023-08-15T01:08:19.640Z,18.56
2023-08-15T01:11:21.914Z,18.53
2023-08-15T01:14:30.774Z,18.41
2023-08-15T01:17:38.298Z,18.47
2023-08-15T01:20:41.618Z,18.47
2023-08-15T01:23:47.163Z,18.61
2023-08-15T01:26:49.480Z,18.59
2023-08-15T01:29:51.706Z,18.24
2023-08-15T01:33:02.935Z,18.18
2023-08-15T01:36:22.586Z,18.24
2023-08-15T01:39:30.076Z,18.10
2023-08-15T01:42:33.016Z,18.22
2023-08-15T01:45:36.247Z,18.34
2023-08-15T01:48:42.797Z,18.34
2023-08-15T01:51:47.274Z,18.31
2023-08-15T01:54:49.580Z,18.35
2023-08-15T01:57:53.169Z,18.35
2023-08-15T02:00:55.504Z,18.34
2023-08-15T02:03:57.873Z,18.27
2023-08-15T02:07:00.329Z,18.27
2023-08-15T02:10:02.747Z,18.37
2023-08-15T02:13:05.128Z,18.35
2023-08-15T02:16:07.703Z,18.49
2023-08-15T02:19:10.090Z,18.47
2023-08-15T02:22:12.768Z,18.41
2023-08-15T02:25:15.185Z,18.32
2023-08-15T02:28:17.471Z,17.96
2023-08-15T02:31:19.811Z,17.71
2023-08-15T02:34:22.151Z,17.94
2023-08-15T02:37:24.388Z,18.12
2023-08-15T02:40:30.544Z,18.12
2023-08-15T02:43:33.072Z,18.04
2023-08-15T02:46:35.518Z,17.98
2023-08-15T02:49:37.854Z,17.77
2023-08-15T02:52:40.241Z,17.65
2023-08-15T02:55:42.484Z,17.74
2023-08-15T02:58:45.150Z,17.16
2023-08-15T03:01:48.561Z,17.05
2023-08-15T03:04:50.949Z,16.95
2023-08-15T03:07:53.685Z,16.94
2023-08-15T03:10:56.058Z,17.02
2023-08-15T03:13:59.598Z,17.14
2023-08-15T03:17:03.442Z,17.20
2023-08-15T03:20:07.344Z,17.23
2023-08-15T03:23:10.044Z,17.28
2023-08-15T03:26:13.226Z,17.33
2023-08-15T03:29:15.954Z,17.22
2023-08-15T03:32:18.185Z,17.36
2023-08-15T03:35:22.732Z,17.57
2023-08-15T03:38:25.445Z,17.66
2023-08-15T03:41:28.199Z,17.70
2023-08-15T03:44:30.469Z,17.73
2023-08-15T03:47:33.674Z,17.76
2023-08-15T03:50:37.331Z,17.77
2023-08-15T03:53:39.624Z,17.86
2023-08-15T03:56:42.274Z,17.96
2023-08-15T03:59:44.966Z,17.90
2023-08-15T04:02:48.464Z,17.83
2023-08-15T04:05:50.872Z,17.49
2023-08-15T04:08:53.102Z,17.52
2023-08-15T04:11:55.379Z,17.28
2023-08-15T04:14:57.628Z,17.18
2023-08-15T04:18:00.081Z,16.99
2023-08-15T04:21:11.388Z,17.23
2023-08-15T04:24:13.786Z,17.53
2023-08-15T04:27:22.791Z,17.62
2023-08-15T04:30:26.124Z,17.77
2023-08-15T04:33:28.420Z,17.69
2023-08-15T04:36:31.214Z,17.79
2023-08-15T04:39:33.486Z,17.81
2023-08-15T04:42:36.605Z,17.77
2023-08-15T04:45:42.188Z,17.93
2023-08-15T04:48:47.469Z,17.98
2023-08-15T04:51:49.899Z,18.05
2023-08-15T04:54:52.430Z,18.20
2023-08-15T04:57:54.754Z,18.47
2023-08-15T05:00:57.333Z,18.72
2023-08-15T05:04:01.320Z,18.90
2023-08-15T05:07:05.404Z,19.12
2023-08-15T05:10:09.503Z,19.38
2023-08-15T05:13:14.783Z,19.51
2023-08-15T05:16:17.092Z,19.68
2023-08-15T05:19:19.485Z,19.85
2023-08-15T05:22:21.716Z,20.04
2023-08-15T05:25:24.084Z,20.25
2023-08-15T05:28:26.515Z,20.46
2023-08-15T05:31:29.225Z,20.66
2023-08-15T05:34:31.492Z,20.74
2023-08-15T05:37:33.767Z,20.93
2023-08-15T05:40:36.099Z,21.12
2023-08-15T05:43:38.428Z,21.30
2023-08-15T05:46:40.709Z,21.44
2023-08-15T05:49:43.994Z,21.61
2023-08-15T05:52:46.264Z,21.93
2023-08-15T05:55:48.551Z,22.18
2023-08-15T05:58:50.797Z,22.51
2023-08-15T06:01:53.067Z,22.71
2023-08-15T06:04:55.278Z,22.99
2023-08-15T06:07:57.970Z,23.38
2023-08-15T06:11:00.259Z,23.60
2023-08-15T06:14:02.555Z,23.87
2023-08-15T06:17:06.242Z,23.92
2023-08-15T06:20:09.154Z,24.25
2023-08-15T06:23:11.431Z,24.57
2023-08-15T06:26:13.861Z,24.73
2023-08-15T06:29:16.070Z,25.10
2023-08-15T06:32:29.037Z,25.43
2023-08-15T06:35:31.745Z,25.58
2023-08-15T06:38:34.063Z,25.90
2023-08-15T06:41:36.287Z,26.01
2023-08-15T06:44:38.877Z,26.19
2023-08-15T06:47:41.262Z,26.75
2023-08-15T06:50:44.095Z,27.07
2023-08-15T06:53:54.151Z,27.42
2023-08-15T06:56:56.595Z,27.68
2023-08-15T06:59:58.932Z,28.17
2023-08-15T07:03:01.284Z,28.50
2023-08-15T07:06:05.264Z,28.84
2023-08-15T07:09:08.073Z,29.10
2023-08-15T07:12:11.049Z,29.25
2023-08-15T07:15:13.393Z,29.67
2023-08-15T07:18:15.685Z,29.93
2023-08-15T07:21:21.130Z,29.72
2023-08-15T07:24:24.469Z,29.83
2023-08-15T07:27:26.923Z,30.00
2023-08-15T07:30:30.172Z,30.13
2023-08-15T07:33:32.918Z,30.33
2023-08-15T07:36:35.768Z,31.03
2023-08-15T07:39:38.072Z,31.51
2023-08-15T07:42:40.427Z,31.90
2023-08-15T07:45:42.799Z,32.28
2023-08-15T07:48:45.521Z,31.83
2023-08-15T07:51:47.881Z,30.68
2023-08-15T07:54:50.139Z,30.03
2023-08-15T07:57:52.492Z,30.28
2023-08-15T08:00:54.758Z,29.94
2023-08-15T08:03:57.156Z,30.45
2023-08-15T08:06:59.552Z,31.39
2023-08-15T08:10:02.135Z,32.21
2023-08-15T08:13:07.644Z,32.83
2023-08-15T08:16:10.076Z,32.78
2023-08-15T08:19:12.349Z,33.33
2023-08-15T08:22:14.864Z,33.84
2023-08-15T08:25:25.084Z,34.04
2023-08-15T08:28:27.528Z,33.61
2023-08-15T08:31:29.845Z,34.04
2023-08-15T08:34:32.242Z,33.43
2023-08-15T08:37:34.583Z,33.95
2023-08-15T08:40:37.039Z,33.97
2023-08-15T08:43:40.924Z,33.98
2023-08-15T08:46:45.168Z,33.70
2023-08-15T08:49:49.227Z,34.25
2023-08-15T08:52:51.930Z,34.60
2023-08-15T08:55:54.280Z,34.14
2023-08-15T08:59:02.590Z,34.12
2023-08-15T09:02:06.295Z,33.88
2023-08-15T09:05:10.362Z,33.80
2023-08-15T09:08:12.770Z,33.78
2023-08-15T09:11:15.162Z,33.09
2023-08-15T09:14:18.575Z,33.06
2023-08-15T09:17:25.225Z,33.50
2023-08-15T09:20:28.151Z,33.22
2023-08-15T09:23:32.320Z,33.75
2023-08-15T09:26:36.551Z,33.70
2023-08-15T09:29:38.989Z,33.36
2023-08-15T09:32:43.006Z,33.37
2023-08-15T09:35:57.873Z,33.82
2023-08-15T09:39:01.595Z,33.93
2023-08-15T09:42:04.194Z,33.68
2023-08-15T09:45:08.552Z,33.78
2023-08-15T09:48:11.633Z,33.87
2023-08-15T09:51:19.334Z,34.05
2023-08-15T09:54:22.811Z,33.74
2023-08-15T09:57:26.922Z,33.43
2023-08-15T10:00:37.116Z,33.12
2023-08-15T10:03:46.190Z,32.95
2023-08-15T10:07:08.029Z,33.02
2023-08-15T10:10:16.591Z,33.47
2023-08-15T10:13:25.618Z,33.74
2023-08-15T10:16:28.999Z,34.29
2023-08-15T10:19:34.563Z,33.87
2023-08-15T10:22:36.858Z,34.29
2023-08-15T10:25:42.793Z,34.56
2023-08-15T10:28:47.448Z,34.89
2023-08-15T10:31:59.941Z,35.29
2023-08-15T10:35:04.045Z,35.54
2023-08-15T10:38:15.288Z,35.57
2023-08-15T10:41:21.528Z,35.59
2023-08-15T10:44:24.210Z,35.78
2023-08-15T10:47:26.453Z,35.37
2023-08-15T10:50:28.894Z,35.43
2023-08-15T10:53:31.232Z,34.95
2023-08-15T10:56:35.827Z,35.45
2023-08-15T10:59:38.182Z,36.04
2023-08-15T11:02:40.739Z,35.89
2023-08-15T11:05:43.476Z,35.07
2023-08-15T11:08:54.953Z,36.40
2023-08-15T11:12:06.081Z,36.53
2023-08-15T11:15:10.570Z,36.56
2023-08-15T11:18:21.742Z,36.67
2023-08-15T11:21:29.171Z,36.67
2023-08-15T11:24:32.501Z,36.12
2023-08-15T11:27:46.394Z,37.61
2023-08-15T11:30:48.804Z,37.42
2023-08-15T11:33:53.108Z,36.77
2023-08-15T11:36:55.594Z,36.97
2023-08-15T11:39:58.196Z,37.42
2023-08-15T11:43:01.351Z,36.90
2023-08-15T11:46:05.745Z,35.50
2023-08-15T11:49:16.621Z,35.21
2023-08-15T11:52:20.694Z,35.13
2023-08-15T11:55:24.182Z,36.05
2023-08-15T11:58:30.181Z,36.36
2023-08-15T12:01:42.861Z,35.30
2023-08-15T12:04:48.310Z,35.50
2023-08-15T12:07:51.270Z,35.45
2023-08-15T12:10:58.370Z,35.40
2023-08-15T12:14:00.662Z,34.42
2023-08-15T12:17:03.022Z,33.75
2023-08-15T12:20:07.823Z,34.31
2023-08-15T12:23:18.758Z,34.35
2023-08-15T12:26:27.108Z,35.88
2023-08-15T12:30:11.734Z,37.54
2023-08-15T12:32:52.084Z,36.72
2023-08-15T12:35:54.522Z,35.71
2023-08-15T12:38:56.788Z,34.51
2023-08-15T12:41:59.580Z,34.26
2023-08-15T12:45:01.833Z,35.36
2023-08-15T12:48:04.403Z,36.63
2023-08-15T12:51:06.681Z,36.47
2023-08-15T12:54:09.007Z,36.84
2023-08-15T12:57:11.493Z,37.34
2023-08-15T13:00:14.543Z,37.68
2023-08-15T13:03:16.962Z,36.87
2023-08-15T13:06:19.481Z,35.75
2023-08-15T13:09:21.873Z,35.31
2023-08-15T13:12:24.335Z,35.50
2023-08-15T13:15:27.079Z,34.69
2023-08-15T13:18:29.431Z,34.79
2023-08-15T13:21:31.822Z,34.01
2023-08-15T13:24:34.191Z,33.97
2023-08-15T13:27:36.509Z,34.14
2023-08-15T13:30:38.903Z,33.95
2023-08-15T13:33:42.643Z,33.82
2023-08-15T13:36:47.211Z,33.64
2023-08-15T13:39:49.473Z,32.69
2023-08-15T13:42:51.785Z,32.39
2023-08-15T13:45:54.101Z,32.24
2023-08-15T13:48:56.598Z,32.01
2023-08-15T13:51:58.836Z,31.67
2023-08-15T13:55:01.182Z,31.49
2023-08-15T13:58:04.104Z,31.23
2023-08-15T14:01:07.803Z,31.66
2023-08-15T14:04:10.021Z,31.23
2023-08-15T14:07:12.324Z,30.94
2023-08-15T14:10:15.098Z,31.09
2023-08-15T14:13:17.581Z,31.29
2023-08-15T14:16:19.902Z,31.12
2023-08-15T14:19:22.275Z,30.78
2023-08-15T14:22:24.839Z,30.34
2023-08-15T14:25:34.680Z,30.12
2023-08-15T14:28:36.937Z,30.14
2023-08-15T14:31:39.257Z,29.62
2023-08-15T14:34:41.521Z,29.73
2023-08-15T14:37:43.890Z,30.03
2023-08-15T14:40:46.504Z,29.82
2023-08-15T14:43:49.894Z,29.69
2023-08-15T14:46:52.146Z,29.45
2023-08-15T14:49:54.461Z,29.65
2023-08-15T14:52:56.754Z,29.52
2023-08-15T14:55:59.807Z,29.55
2023-08-15T14:59:02.027Z,29.70
2023-08-15T15:02:04.467Z,29.76
2023-08-15T15:05:07.670Z,29.61
2023-08-15T15:08:16.515Z,29.62
2023-08-15T15:11:25.416Z,29.49
2023-08-15T15:14:28.560Z,29.82
2023-08-15T15:17:30.810Z,29.99
2023-08-15T15:20:33.193Z,30.24
2023-08-15T15:23:35.500Z,30.14
2023-08-15T15:26:37.824Z,30.38
2023-08-15T15:29:40.150Z,30.23
2023-08-15T15:32:42.519Z,29.99
2023-08-15T15:35:44.852Z,29.80
2023-08-15T15:38:47.343Z,29.70
2023-08-15T15:41:49.627Z,29.56
2023-08-15T15:44:52.058Z,29.32
2023-08-15T15:47:54.402Z,29.26
2023-08-15T15:50:56.783Z,29.39
2023-08-15T15:53:59.030Z,29.42
2023-08-15T15:57:01.318Z,29.38
2023-08-15T16:00:03.993Z,29.39
2023-08-15T16:03:08.538Z,29.46
2023-08-15T16:06:10.898Z,29.48
2023-08-15T16:09:14.819Z,29.63
2023-08-15T16:12:17.055Z,29.86
2023-08-15T16:15:19.606Z,29.84
2023-08-15T16:18:21.873Z,29.66
2023-08-15T16:21:24.239Z,29.66
2023-08-15T16:24:26.507Z,29.58
2023-08-15T16:27:28.834Z,29.67
2023-08-15T16:30:31.097Z,29.53
2023-08-15T16:33:33.428Z,29.45
2023-08-15T16:36:36.052Z,29.38
2023-08-15T16:39:39.360Z,29.35
2023-08-15T16:42:41.667Z,29.16
2023-08-15T16:45:46.750Z,28.94
2023-08-15T16:48:49.284Z,28.63
2023-08-15T16:51:51.561Z,28.47
2023-08-15T16:54:53.785Z,28.17
2023-08-15T16:57:58.405Z,28.12
2023-08-15T17:01:00.674Z,27.88
2023-08-15T17:04:03.387Z,27.86
2023-08-15T17:07:05.776Z,27.84
2023-08-15T17:10:08.504Z,27.65
2023-08-15T17:13:10.826Z,27.52
2023-08-15T17:16:13.223Z,27.35
2023-08-15T17:19:15.459Z,27.21
2023-08-15T17:22:17.775Z,27.14
2023-08-15T17:25:20.005Z,26.94
2023-08-15T17:28:22.298Z,26.80
2023-08-15T17:31:24.628Z,26.72
2023-08-15T17:34:26.957Z,26.55
2023-08-15T17:37:29.200Z,26.32
2023-08-15T17:40:33.727Z,26.43
2023-08-15T17:43:37.390Z,26.42
2023-08-15T17:46:39.728Z,26.25
2023-08-15T17:49:42.038Z,26.05
2023-08-15T17:52:44.370Z,26.08
2023-08-15T17:55:46.584Z,25.90
2023-08-15T17:58:52.491Z,25.70
2023-08-15T18:01:55.002Z,25.60
2023-08-15T18:04:57.369Z,25.37
2023-08-15T18:07:59.633Z,25.34
2023-08-15T18:11:03.154Z,25.41
2023-08-15T18:14:07.501Z,25.36
2023-08-15T18:17:10.369Z,25.22
2023-08-15T18:20:12.600Z,25.03
2023-08-15T18:23:14.926Z,24.83
2023-08-15T18:26:17.226Z,24.76
2023-08-15T18:29:19.516Z,24.64
2023-08-15T18:32:22.176Z,24.51
2023-08-15T18:35:24.834Z,24.49
2023-08-15T18:38:31.247Z,24.54
2023-08-15T18:41:33.599Z,24.32
2023-08-15T18:44:35.824Z,24.03
2023-08-15T18:47:39.139Z,23.98
2023-08-15T18:50:45.407Z,23.90
2023-08-15T18:53:47.805Z,23.76
2023-08-15T18:56:50.137Z,23.90
2023-08-15T18:59:53.793Z,23.93
2023-08-15T19:02:56.125Z,23.86
2023-08-15T19:05:58.733Z,23.83
2023-08-15T19:09:00.979Z,23.77
2023-08-15T19:12:04.741Z,23.76
2023-08-15T19:15:07.627Z,23.71
2023-08-15T19:18:09.979Z,23.62
2023-08-15T19:21:14.214Z,23.47
2023-08-15T19:24:18.979Z,23.30
2023-08-15T19:27:22.048Z,23.18
2023-08-15T19:30:25.535Z,23.11
2023-08-15T19:33:27.882Z,23.02
2023-08-15T19:36:30.212Z,22.94
2023-08-15T19:39:32.527Z,22.84
2023-08-15T19:42:39.122Z,22.77
2023-08-15T19:45:41.415Z,22.67
2023-08-15T19:48:43.743Z,22.60
2023-08-15T19:51:45.984Z,22.27
2023-08-15T19:54:48.261Z,22.29
2023-08-15T19:57:50.606Z,22.26
2023-08-15T20:00:52.970Z,22.39
2023-08-15T20:03:55.205Z,22.37
2023-08-15T20:06:57.488Z,22.44
2023-08-15T20:10:10.901Z,22.07
2023-08-15T20:13:14.684Z,22.12
2023-08-15T20:16:16.966Z,21.96
2023-08-15T20:19:20.163Z,21.93
2023-08-15T20:22:23.102Z,21.52
2023-08-15T20:25:27.756Z,21.04
2023-08-15T20:28:30.021Z,21.20
2023-08-15T20:31:32.466Z,21.37
2023-08-15T20:34:34.899Z,21.48
2023-08-15T20:37:37.803Z,21.51
2023-08-15T20:40:40.304Z,21.52
2023-08-15T20:43:42.825Z,21.42
2023-08-15T20:46:45.130Z,21.32
2023-08-15T20:49:48.249Z,21.42
2023-08-15T20:52:51.735Z,21.20
2023-08-15T20:55:54.025Z,21.03
2023-08-15T20:58:56.661Z,20.54
2023-08-15T21:02:01.035Z,20.28
2023-08-15T21:05:04.276Z,20.36
2023-08-15T21:08:06.792Z,20.50
2023-08-15T21:11:09.309Z,20.42
2023-08-15T21:14:11.632Z,20.50
2023-08-15T21:17:13.863Z,20.28
2023-08-15T21:20:16.195Z,19.68
2023-08-15T21:23:18.549Z,19.60
2023-08-15T21:26:20.840Z,19.57
2023-08-15T21:29:23.068Z,19.67
2023-08-15T21:32:25.356Z,19.85
2023-08-15T21:35:27.654Z,19.84
2023-08-15T21:38:30.266Z,19.94
2023-08-15T21:41:32.515Z,19.92
2023-08-15T21:44:34.858Z,19.99
2023-08-15T21:47:37.243Z,19.98
2023-08-15T21:50:39.708Z,19.84
2023-08-15T21:53:42.000Z,19.98
2023-08-15T21:56:44.371Z,20.13
2023-08-15T21:59:46.705Z,20.28
2023-08-15T22:02:49.328Z,20.28
2023-08-15T22:05:51.641Z,20.15
2023-08-15T22:08:53.985Z,20.26
2023-08-15T22:11:56.229Z,20.29
2023-08-15T22:14:58.603Z,19.54
2023-08-15T22:18:18.832Z,19.46
2023-08-15T22:21:21.522Z,19.81
2023-08-15T22:24:23.996Z,19.81
2023-08-15T22:27:26.560Z,19.89
2023-08-15T22:30:28.810Z,19.92
2023-08-15T22:33:31.083Z,19.92
2023-08-15T22:36:34.101Z,19.75
2023-08-15T22:39:36.384Z,19.35
2023-08-15T22:42:38.594Z,19.02
2023-08-15T22:45:42.994Z,19.17
2023-08-15T22:48:45.305Z,19.20
2023-08-15T22:51:47.666Z,19.17
2023-08-15T22:54:49.961Z,19.40
2023-08-15T22:57:52.244Z,19.38
2023-08-15T23:00:58.160Z,19.57
2023-08-15T23:04:00.800Z,19.71
2023-08-15T23:07:03.134Z,19.72
2023-08-15T23:10:06.545Z,19.79
2023-08-15T23:13:08.840Z,19.63
2023-08-15T23:16:11.667Z,19.68
2023-08-15T23:19:13.999Z,19.54
2023-08-15T23:22:16.348Z,19.57
2023-08-15T23:25:18.595Z,19.58
2023-08-15T23:28:20.946Z,19.51
2023-08-15T23:31:32.859Z,19.47
2023-08-15T23:34:35.912Z,19.24
2023-08-15T23:37:38.732Z,19.30
2023-08-15T23:40:41.138Z,19.23
2023-08-15T23:43:43.366Z,19.23
2023-08-15T23:46:46.859Z,19.10
2023-08-15T23:49:49.256Z,18.58
2023-08-15T23:52:51.528Z,18.38
2023-08-15T23:55:53.729Z,18.45
2023-08-15T23:58:56.705Z,18.69
